createdAt,value
2023-04-22T00:01:02.914Z,61.40
2023-04-22T00:03:31.432Z,61.10
2023-04-22T00:06:00.130Z,61.10
2023-04-22T00:08:28.684Z,61.00
2023-04-22T00:10:58.348Z,61.40
2023-04-22T00:13:26.653Z,61.50
2023-04-22T00:15:55.009Z,61.70
2023-04-22T00:18:23.389Z,61.50
2023-04-22T00:20:51.615Z,62.60
2023-04-22T00:23:19.973Z,62.20
2023-04-22T00:25:48.533Z,62.50
2023-04-22T00:28:18.255Z,62.90
2023-04-22T00:30:46.741Z,63.00
2023-04-22T00:33:15.060Z,63.20
2023-04-22T00:35:43.555Z,63.10
2023-04-22T00:38:11.771Z,63.10
2023-04-22T00:40:39.969Z,63.10
2023-04-22T00:43:10.173Z,63.40
2023-04-22T00:45:40.878Z,63.40
2023-04-22T00:48:09.675Z,63.40
2023-04-22T00:50:38.020Z,63.50
2023-04-22T00:53:06.400Z,63.70
2023-04-22T00:55:35.217Z,63.40
2023-04-22T00:58:05.087Z,63.30
2023-04-22T01:00:33.452Z,63.40
2023-04-22T01:03:04.069Z,63.20
2023-04-22T01:05:33.102Z,63.20
2023-04-22T01:08:02.513Z,63.10
2023-04-22T01:10:30.786Z,62.90
2023-04-22T01:12:58.996Z,62.90
2023-04-22T01:15:28.718Z,63.20
2023-04-22T01:17:57.807Z,63.70
2023-04-22T01:20:29.900Z,63.70
2023-04-22T01:23:03.933Z,64.00
2023-04-22T01:25:34.295Z,64.30
2023-04-22T01:28:03.727Z,64.30
2023-04-22T01:30:32.129Z,64.40
2023-04-22T01:33:00.685Z,64.60
2023-04-22T01:35:30.541Z,64.70
2023-04-22T01:37:59.061Z,64.90
2023-04-22T01:40:28.343Z,65.20
2023-04-22T01:42:58.471Z,65.10
2023-04-22T01:45:27.136Z,65.10
2023-04-22T01:47:55.759Z,64.70
2023-04-22T01:50:25.106Z,64.60
2023-04-22T01:52:53.425Z,64.20
2023-04-22T01:55:23.672Z,63.80
2023-04-22T01:57:52.406Z,64.00
2023-04-22T02:00:22.056Z,63.70
2023-04-22T02:02:50.406Z,63.50
2023-04-22T02:05:19.473Z,63.30
2023-04-22T02:07:48.212Z,63.20
2023-04-22T02:10:18.250Z,63.20
2023-04-22T02:12:46.517Z,63.40
2023-04-22T02:15:15.920Z,63.80
2023-04-22T02:17:46.260Z,64.10
2023-04-22T02:20:14.653Z,64.50
2023-04-22T02:22:44.431Z,64.60
2023-04-22T02:25:14.194Z,65.60
2023-04-22T02:27:43.966Z,65.10
2023-04-22T02:30:14.208Z,65.00
2023-04-22T02:32:42.505Z,64.30
2023-04-22T02:35:12.611Z,64.10
2023-04-22T02:37:41.147Z,63.80
2023-04-22T02:40:10.464Z,63.90
2023-04-22T02:42:38.694Z,64.30
2023-04-22T02:45:07.939Z,64.30
2023-04-22T02:47:37.029Z,64.00
2023-04-22T02:50:07.167Z,63.30
2023-04-22T02:52:36.819Z,63.30
2023-04-22T02:55:05.427Z,63.40
2023-04-22T02:57:33.844Z,63.70
2023-04-22T03:00:02.889Z,64.80
2023-04-22T03:02:31.261Z,63.80
2023-04-22T03:05:07.403Z,64.00
2023-04-22T03:07:37.515Z,64.40
2023-04-22T03:10:07.207Z,64.80
2023-04-22T03:12:36.066Z,65.60
2023-04-22T03:15:05.272Z,66.20
2023-04-22T03:17:33.747Z,66.70
2023-04-22T03:20:06.541Z,67.50
2023-04-22T03:22:35.431Z,67.70
2023-04-22T03:25:07.579Z,67.80
2023-04-22T03:27:35.944Z,68.10
2023-04-22T03:30:04.966Z,68.30
2023-04-22T03:32:33.476Z,68.40
2023-04-22T03:35:15.864Z,68.30
2023-04-22T03:37:45.092Z,67.90
2023-04-22T03:40:17.831Z,67.70
2023-04-22T03:42:46.183Z,67.50
2023-04-22T03:45:15.250Z,67.00
2023-04-22T03:47:49.494Z,66.90
2023-04-22T03:50:24.131Z,66.90
2023-04-22T03:52:54.676Z,67.00
2023-04-22T03:55:24.527Z,67.40
2023-04-22T03:57:54.536Z,67.30
2023-04-22T04:00:22.846Z,67.50
2023-04-22T04:03:03.284Z,67.70
2023-04-22T04:05:31.934Z,68.70
2023-04-22T04:08:00.482Z,68.30
2023-04-22T04:10:30.416Z,68.40
2023-04-22T04:13:00.952Z,68.40
2023-04-22T04:15:35.661Z,68.20
2023-04-22T04:18:05.324Z,67.80
2023-04-22T04:20:34.944Z,67.20
2023-04-22T04:23:03.349Z,66.90
2023-04-22T04:25:38.339Z,66.60
2023-04-22T04:28:12.111Z,66.50
2023-04-22T04:30:41.820Z,66.60
2023-04-22T04:33:12.383Z,66.60
2023-04-22T04:35:43.401Z,66.70
2023-04-22T04:38:14.559Z,67.50
2023-04-22T04:40:45.594Z,66.90
2023-04-22T04:43:18.654Z,66.70
2023-04-22T04:45:58.070Z,67.00
2023-04-22T04:48:35.984Z,67.50
2023-04-22T04:51:08.430Z,68.20
2023-04-22T04:53:42.669Z,68.60
2023-04-22T04:56:13.201Z,68.70
2023-04-22T04:58:41.564Z,68.80
2023-04-22T05:01:15.010Z,68.50
2023-04-22T05:03:45.131Z,68.80
2023-04-22T05:06:16.072Z,69.80
2023-04-22T05:08:49.057Z,68.80
2023-04-22T05:11:18.762Z,68.90
2023-04-22T05:13:49.781Z,68.00
2023-04-22T05:16:24.199Z,68.60
2023-04-22T05:18:52.445Z,68.80
2023-04-22T05:21:20.652Z,67.80
2023-04-22T05:23:48.881Z,68.10
2023-04-22T05:26:18.603Z,68.70
2023-04-22T05:28:49.373Z,69.30
2023-04-22T05:31:19.124Z,69.60
2023-04-22T05:33:48.245Z,69.80
2023-04-22T05:36:16.541Z,70.10
2023-04-22T05:38:47.763Z,70.70
2023-04-22T05:41:18.028Z,70.30
2023-04-22T05:43:46.911Z,74.10
2023-04-22T05:46:19.682Z,74.30
2023-04-22T05:48:49.779Z,73.30
2023-04-22T05:51:40.516Z,72.90
2023-04-22T05:54:09.072Z,71.90
2023-04-22T05:56:38.702Z,72.80
2023-04-22T05:59:06.989Z,72.50
2023-04-22T06:01:35.186Z,73.50
2023-04-22T06:04:07.569Z,73.80
2023-04-22T06:06:36.064Z,73.20
2023-04-22T06:09:04.196Z,74.10
2023-04-22T06:11:32.404Z,75.70
2023-04-22T06:14:02.041Z,75.90
2023-04-22T06:16:31.052Z,76.70
2023-04-22T06:18:59.538Z,77.00
2023-04-22T06:21:28.594Z,77.00
2023-04-22T06:23:58.043Z,76.20
2023-04-22T06:26:26.402Z,77.10
2023-04-22T06:28:54.637Z,76.50
2023-04-22T06:31:24.215Z,75.30
2023-04-22T06:33:52.383Z,74.10
2023-04-22T06:36:21.534Z,73.20
2023-04-22T06:38:55.875Z,71.90
2023-04-22T06:41:40.827Z,70.80
2023-04-22T06:44:21.968Z,69.60
2023-04-22T06:47:23.878Z,69.90
2023-04-22T06:50:10.180Z,65.20
2023-04-22T06:52:46.266Z,65.80
2023-04-22T06:55:15.186Z,63.80
2023-04-22T06:57:43.345Z,62.20
2023-04-22T07:00:12.622Z,60.80
2023-04-22T07:02:43.683Z,62.00
2023-04-22T07:05:11.830Z,59.80
2023-04-22T07:07:40.740Z,60.30
2023-04-22T07:10:14.533Z,58.00
2023-04-22T07:12:50.587Z,56.40
2023-04-22T07:15:18.910Z,58.00
2023-04-22T07:17:48.516Z,57.30
2023-04-22T07:20:16.751Z,57.40
2023-04-22T07:22:44.962Z,57.40
2023-04-22T07:25:13.546Z,56.40
2023-04-22T07:27:41.788Z,54.90
2023-04-22T07:30:12.973Z,54.20
2023-04-22T07:32:41.155Z,54.10
2023-04-22T07:35:11.109Z,54.10
2023-04-22T07:37:39.434Z,54.00
2023-04-22T07:40:11.727Z,53.50
2023-04-22T07:42:40.227Z,54.50
2023-04-22T07:45:09.254Z,53.90
2023-04-22T07:47:37.425Z,54.40
2023-04-22T07:50:07.082Z,55.90
2023-04-22T07:52:36.655Z,54.70
2023-04-22T07:55:05.398Z,54.80
2023-04-22T07:57:38.433Z,54.10
2023-04-22T08:00:07.923Z,54.30
2023-04-22T08:02:42.172Z,52.90
2023-04-22T08:05:10.734Z,53.90
2023-04-22T08:07:40.344Z,54.50
2023-04-22T08:10:09.422Z,51.90
2023-04-22T08:12:38.243Z,52.30
2023-04-22T08:15:07.588Z,53.40
2023-04-22T08:17:35.923Z,53.20
2023-04-22T08:20:07.914Z,54.20
2023-04-22T08:22:36.785Z,53.70
2023-04-22T08:25:08.490Z,53.80
2023-04-22T08:27:36.985Z,54.10
2023-04-22T08:30:06.213Z,53.80
2023-04-22T08:32:34.388Z,53.00
2023-04-22T08:35:05.426Z,52.70
2023-04-22T08:37:35.011Z,53.10
2023-04-22T08:40:04.810Z,54.20
2023-04-22T08:42:34.774Z,52.80
2023-04-22T08:45:04.368Z,52.30
2023-04-22T08:47:33.994Z,50.70
2023-04-22T08:50:05.337Z,52.30
2023-04-22T08:52:33.502Z,50.30
2023-04-22T08:55:02.079Z,49.30
2023-04-22T08:57:30.811Z,52.80
2023-04-22T09:00:00.642Z,48.10
2023-04-22T09:02:30.177Z,49.50
2023-04-22T09:04:59.252Z,50.20
2023-04-22T09:07:31.085Z,48.00
2023-04-22T09:10:00.585Z,48.10
2023-04-22T09:12:28.935Z,48.10
2023-04-22T09:14:57.823Z,48.30
2023-04-22T09:17:34.801Z,48.20
2023-04-22T09:20:06.266Z,46.00
2023-04-22T09:22:41.211Z,46.40
2023-04-22T09:25:17.541Z,49.80
2023-04-22T09:27:49.955Z,48.20
2023-04-22T09:30:19.656Z,46.50
2023-04-22T09:32:56.117Z,45.40
2023-04-22T09:35:32.429Z,47.10
2023-04-22T09:38:02.728Z,44.50
2023-04-22T09:40:32.579Z,46.60
2023-04-22T09:43:02.759Z,42.00
2023-04-22T09:45:33.412Z,38.90
2023-04-22T09:48:05.258Z,36.00
2023-04-22T09:50:33.351Z,34.70
2023-04-22T09:53:03.372Z,36.90
2023-04-22T09:55:35.704Z,34.30
2023-04-22T09:58:08.797Z,34.90
2023-04-22T10:00:41.062Z,35.60
2023-04-22T10:03:11.231Z,37.10
2023-04-22T10:05:39.819Z,35.50
2023-04-22T10:08:09.554Z,35.80
2023-04-22T10:10:38.368Z,36.40
2023-04-22T10:13:07.363Z,33.80
2023-04-22T10:15:37.823Z,29.80
2023-04-22T10:18:08.696Z,28.90
2023-04-22T10:20:41.119Z,29.30
2023-04-22T10:23:19.091Z,30.00
2023-04-22T10:25:51.447Z,31.00
2023-04-22T10:28:19.821Z,30.10
2023-04-22T10:30:48.205Z,27.20
2023-04-22T10:33:39.581Z,27.00
2023-04-22T10:36:12.036Z,24.90
2023-04-22T10:38:42.588Z,24.80
2023-04-22T10:41:15.295Z,25.40
2023-04-22T10:43:45.466Z,25.80
2023-04-22T10:46:52.038Z,26.00
2023-04-22T10:49:21.748Z,26.20
2023-04-22T10:51:52.909Z,26.50
2023-04-22T10:55:02.208Z,29.40
2023-04-22T10:57:40.530Z,28.40
2023-04-22T11:00:41.886Z,26.10
2023-04-22T11:03:17.566Z,26.70
2023-04-22T11:05:46.941Z,25.20
2023-04-22T11:08:21.587Z,25.70
2023-04-22T11:10:50.811Z,25.60
2023-04-22T11:13:21.145Z,26.90
2023-04-22T11:15:51.331Z,27.20
2023-04-22T11:18:21.945Z,26.80
2023-04-22T11:20:51.318Z,25.90
2023-04-22T11:23:23.938Z,26.70
2023-04-22T11:25:57.607Z,25.00
2023-04-22T11:28:25.720Z,26.60
2023-04-22T11:30:54.187Z,26.00
2023-04-22T11:33:22.318Z,25.30
2023-04-22T11:35:51.814Z,25.20
2023-04-22T11:38:21.431Z,23.20
2023-04-22T11:40:49.706Z,24.40
2023-04-22T11:43:18.742Z,26.30
2023-04-22T11:45:47.399Z,25.90
2023-04-22T11:48:15.632Z,26.60
2023-04-22T11:50:46.198Z,25.90
2023-04-22T11:53:16.201Z,25.10
2023-04-22T11:55:48.103Z,26.80
2023-04-22T11:58:18.540Z,26.40
2023-04-22T12:00:49.125Z,25.80
2023-04-22T12:03:19.426Z,24.70
2023-04-22T12:05:49.160Z,24.30
2023-04-22T12:08:18.676Z,24.50
2023-04-22T12:10:50.188Z,25.30
2023-04-22T12:13:22.666Z,24.80
2023-04-22T12:15:54.899Z,24.00
2023-04-22T12:18:30.749Z,22.90
2023-04-22T12:21:02.481Z,23.00
2023-04-22T12:23:30.589Z,23.00
2023-04-22T12:26:00.192Z,22.90
2023-04-22T12:28:28.375Z,22.20
2023-04-22T12:30:56.750Z,23.70
2023-04-22T12:33:24.966Z,24.10
2023-04-22T12:35:53.828Z,22.80
2023-04-22T12:38:21.981Z,23.40
2023-04-22T12:40:51.161Z,23.30
2023-04-22T12:43:20.847Z,24.10
2023-04-22T12:45:49.098Z,23.40
2023-04-22T12:48:18.284Z,23.60
2023-04-22T12:50:46.466Z,23.30
2023-04-22T12:53:14.698Z,22.70
2023-04-22T12:55:45.903Z,22.10
2023-04-22T12:58:14.377Z,22.90
2023-04-22T13:00:44.085Z,22.70
2023-04-22T13:03:12.505Z,22.30
2023-04-22T13:05:41.149Z,21.90
2023-04-22T13:08:09.436Z,21.60
2023-04-22T13:10:37.707Z,22.00
2023-04-22T13:13:17.837Z,20.60
2023-04-22T13:15:53.324Z,20.70
2023-04-22T13:18:23.269Z,20.80
2023-04-22T13:20:51.821Z,21.20
2023-04-22T13:23:21.867Z,21.40
2023-04-22T13:25:51.061Z,21.60
2023-04-22T13:28:19.449Z,22.40
2023-04-22T13:30:49.074Z,22.50
2023-04-22T13:33:17.287Z,22.50
2023-04-22T13:35:45.496Z,21.90
2023-04-22T13:38:13.725Z,22.20
2023-04-22T13:40:41.905Z,22.40
2023-04-22T13:43:10.926Z,21.50
2023-04-22T13:45:40.205Z,21.60
2023-04-22T13:48:09.817Z,21.10
2023-04-22T13:50:38.020Z,21.70
2023-04-22T13:53:10.109Z,20.70
2023-04-22T13:55:38.700Z,21.00
2023-04-22T13:58:07.767Z,21.10
2023-04-22T14:00:36.480Z,21.80
2023-04-22T14:03:04.871Z,21.30
2023-04-22T14:05:34.537Z,21.70
2023-04-22T14:08:02.720Z,23.90
2023-04-22T14:10:30.836Z,22.70
2023-04-22T14:12:59.062Z,24.40
2023-04-22T14:15:27.531Z,23.60
2023-04-22T14:17:55.790Z,23.50
2023-04-22T14:20:26.001Z,23.90
2023-04-22T14:22:56.200Z,25.20
2023-04-22T14:25:24.359Z,24.80
2023-04-22T14:27:52.525Z,23.50
2023-04-22T14:30:21.998Z,23.60
2023-04-22T14:32:50.669Z,23.70
2023-04-22T14:35:19.789Z,22.50
2023-04-22T14:37:48.298Z,23.90
2023-04-22T14:40:18.989Z,23.90
2023-04-22T14:42:47.547Z,24.30
2023-04-22T14:45:15.886Z,24.30
2023-04-22T14:47:44.415Z,23.60
2023-04-22T14:50:12.626Z,23.30
2023-04-22T14:52:40.961Z,22.80
2023-04-22T14:55:21.958Z,22.40
2023-04-22T14:57:56.606Z,22.40
2023-04-22T15:00:25.302Z,23.10
2023-04-22T15:02:55.884Z,23.60
2023-04-22T15:05:24.139Z,23.70
2023-04-22T15:07:52.375Z,23.70
2023-04-22T15:10:21.601Z,24.20
2023-04-22T15:12:49.939Z,24.70
2023-04-22T15:15:19.535Z,25.50
2023-04-22T15:17:47.742Z,24.80
2023-04-22T15:20:16.011Z,24.20
2023-04-22T15:22:45.632Z,24.90
2023-04-22T15:25:14.343Z,24.20
2023-04-22T15:27:43.290Z,24.20
2023-04-22T15:30:12.032Z,23.10
2023-04-22T15:32:41.580Z,23.90
2023-04-22T15:35:10.025Z,24.60
2023-04-22T15:37:38.169Z,24.10
2023-04-22T15:40:08.658Z,24.10
2023-04-22T15:42:37.008Z,23.40
2023-04-22T15:45:06.001Z,24.00
2023-04-22T15:47:36.720Z,24.40
2023-04-22T15:50:09.406Z,24.60
2023-04-22T15:52:39.030Z,24.00
2023-04-22T15:55:08.371Z,24.40
2023-04-22T15:57:36.686Z,24.00
2023-04-22T16:00:12.040Z,24.80
2023-04-22T16:02:45.186Z,24.60
2023-04-22T16:05:15.139Z,23.70
2023-04-22T16:07:43.435Z,23.80
2023-04-22T16:10:12.153Z,23.70
2023-04-22T16:12:40.274Z,24.40
2023-04-22T16:15:10.751Z,25.40
2023-04-22T16:17:39.418Z,26.60
2023-04-22T16:20:09.577Z,27.60
2023-04-22T16:22:39.188Z,28.50
2023-04-22T16:25:08.852Z,29.40
2023-04-22T16:27:37.012Z,30.00
2023-04-22T16:30:06.245Z,30.50
2023-04-22T16:32:34.410Z,32.90
2023-04-22T16:35:02.753Z,34.40
2023-04-22T16:37:31.095Z,35.80
2023-04-22T16:40:00.892Z,35.50
2023-04-22T16:42:29.247Z,36.00
2023-04-22T16:44:57.344Z,37.40
2023-04-22T16:47:26.182Z,36.00
2023-04-22T16:49:54.759Z,36.70
2023-04-22T16:52:22.886Z,36.90
2023-04-22T16:54:51.522Z,35.90
2023-04-22T16:57:21.007Z,36.50
2023-04-22T16:59:49.208Z,35.40
2023-04-22T17:02:17.689Z,35.00
2023-04-22T17:04:46.022Z,34.80
2023-04-22T17:07:14.155Z,34.60
2023-04-22T17:09:42.711Z,34.00
2023-04-22T17:12:11.222Z,34.60
2023-04-22T17:14:40.891Z,34.70
2023-04-22T17:17:09.008Z,35.20
2023-04-22T17:19:37.574Z,35.00
2023-04-22T17:22:06.158Z,34.80
2023-04-22T17:24:34.385Z,34.90
2023-04-22T17:27:02.896Z,35.00
2023-04-22T17:29:31.285Z,34.80
2023-04-22T17:32:01.017Z,34.70
2023-04-22T17:34:29.295Z,35.10
2023-04-22T17:36:57.454Z,35.20
2023-04-22T17:39:25.630Z,35.00
2023-04-22T17:41:53.914Z,34.20
2023-04-22T17:44:22.107Z,34.80
2023-04-22T17:46:50.329Z,35.20
2023-04-22T17:49:19.933Z,35.20
2023-04-22T17:51:48.260Z,35.50
2023-04-22T17:54:16.795Z,35.40
2023-04-22T17:56:45.011Z,35.80
2023-04-22T17:59:13.344Z,35.70
2023-04-22T18:01:42.056Z,35.60
2023-04-22T18:04:10.468Z,35.40
2023-04-22T18:06:40.594Z,34.80
2023-04-22T18:09:09.648Z,34.80
2023-04-22T18:11:37.917Z,35.60
2023-04-22T18:14:08.205Z,35.80
2023-04-22T18:16:36.494Z,36.10
2023-04-22T18:19:06.874Z,36.70
2023-04-22T18:21:36.907Z,36.80
2023-04-22T18:24:09.591Z,37.10
2023-04-22T18:26:37.870Z,37.50
2023-04-22T18:29:08.720Z,37.80
2023-04-22T18:31:37.534Z,38.10
2023-04-22T18:34:06.739Z,37.90
2023-04-22T18:36:34.957Z,38.20
2023-04-22T18:39:04.665Z,38.70
2023-04-22T18:41:34.425Z,38.80
2023-04-22T18:44:02.733Z,38.90
2023-04-22T18:46:31.398Z,39.60
2023-04-22T18:48:59.653Z,39.90
2023-04-22T18:51:29.912Z,40.50
2023-04-22T18:53:58.507Z,40.50
2023-04-22T18:56:26.732Z,40.70
2023-04-22T18:58:56.549Z,40.80
2023-04-22T19:01:24.849Z,40.80
2023-04-22T19:03:53.338Z,40.90
2023-04-22T19:06:21.609Z,40.80
2023-04-22T19:08:51.816Z,41.50
2023-04-22T19:11:20.113Z,41.20
2023-04-22T19:13:48.381Z,41.70
2023-04-22T19:16:18.157Z,41.10
2023-04-22T19:18:46.396Z,41.20
2023-04-22T19:21:14.687Z,41.30
2023-04-22T19:23:42.901Z,41.40
2023-04-22T19:26:11.162Z,41.50
2023-04-22T19:28:47.184Z,41.50
2023-04-22T19:31:15.589Z,41.60
2023-04-22T19:33:46.029Z,42.40
2023-04-22T19:36:14.188Z,43.00
2023-04-22T19:38:45.051Z,43.50
2023-04-22T19:41:13.520Z,44.00
2023-04-22T19:43:41.983Z,44.30
2023-04-22T19:46:10.316Z,44.70
2023-04-22T19:48:40.129Z,44.20
2023-04-22T19:51:11.342Z,44.90
2023-04-22T19:53:42.102Z,44.70
2023-04-22T19:56:10.876Z,45.10
2023-04-22T19:58:40.523Z,45.00
2023-04-22T20:01:09.165Z,45.10
2023-04-22T20:03:38.302Z,45.60
2023-04-22T20:06:07.676Z,46.20
2023-04-22T20:08:41.926Z,46.30
2023-04-22T20:11:11.568Z,46.40
2023-04-22T20:13:40.509Z,46.20
2023-04-22T20:16:09.641Z,46.00
2023-04-22T20:18:38.291Z,46.10
2023-04-22T20:21:08.241Z,46.30
2023-04-22T20:23:37.964Z,47.60
2023-04-22T20:26:06.326Z,47.60
2023-04-22T20:28:46.041Z,47.40
2023-04-22T20:31:18.189Z,47.80
2023-04-22T20:33:46.634Z,48.70
2023-04-22T20:36:16.347Z,49.00
2023-04-22T20:38:47.378Z,49.10
2023-04-22T20:41:18.230Z,50.00
2023-04-22T20:43:46.498Z,49.50
2023-04-22T20:46:14.816Z,49.50
2023-04-22T20:48:43.011Z,49.60
2023-04-22T20:51:12.393Z,49.60
2023-04-22T20:53:41.408Z,49.40
2023-04-22T20:56:11.187Z,49.80
2023-04-22T20:58:39.356Z,49.80
2023-04-22T21:01:09.386Z,50.60
2023-04-22T21:03:40.204Z,50.90
2023-04-22T21:06:09.485Z,51.50
2023-04-22T21:08:39.501Z,51.80
2023-04-22T21:11:08.274Z,51.90
2023-04-22T21:13:38.653Z,52.60
2023-04-22T21:16:09.808Z,53.40
2023-04-22T21:18:41.184Z,53.60
2023-04-22T21:21:12.288Z,54.30
2023-04-22T21:23:42.323Z,55.30
2023-04-22T21:26:11.624Z,54.70
2023-04-22T21:28:41.849Z,54.50
2023-04-22T21:31:11.737Z,55.10
2023-04-22T21:33:40.137Z,55.80
2023-04-22T21:36:08.428Z,55.70
2023-04-22T21:38:36.707Z,56.10
2023-04-22T21:41:05.043Z,55.10
2023-04-22T21:43:33.311Z,55.50
2023-04-22T21:46:02.865Z,55.00
2023-04-22T21:48:31.498Z,54.20
2023-04-22T21:51:00.345Z,54.30
2023-04-22T21:53:28.693Z,53.90
2023-04-22T21:55:56.899Z,53.60
2023-04-22T21:58:25.170Z,53.30
2023-04-22T22:00:53.433Z,53.20
2023-04-22T22:03:23.237Z,52.80
2023-04-22T22:05:54.484Z,52.70
2023-04-22T22:08:22.616Z,53.20
2023-04-22T22:10:51.166Z,53.00
2023-04-22T22:13:19.428Z,53.00
2023-04-22T22:15:47.961Z,52.80
2023-04-22T22:18:16.348Z,53.00
2023-04-22T22:20:45.944Z,53.10
2023-04-22T22:23:14.162Z,53.20
2023-04-22T22:25:42.925Z,54.00
2023-04-22T22:28:11.330Z,54.70
2023-04-22T22:30:39.648Z,54.70
2023-04-22T22:33:08.179Z,53.70
2023-04-22T22:35:36.334Z,54.70
2023-04-22T22:38:06.012Z,55.10
2023-04-22T22:40:34.269Z,56.40
2023-04-22T22:43:02.585Z,56.50
2023-04-22T22:45:30.866Z,57.30
2023-04-22T22:47:59.613Z,57.00
2023-04-22T22:50:27.987Z,58.10
2023-04-22T22:52:56.229Z,58.50
2023-04-22T22:55:25.804Z,59.70
2023-04-22T22:57:53.972Z,60.60
2023-04-22T23:00:22.477Z,60.50
2023-04-22T23:02:51.267Z,61.70
2023-04-22T23:05:19.619Z,61.30
2023-04-22T23:07:47.802Z,62.80
2023-04-22T23:10:16.034Z,62.20
2023-04-22T23:12:45.638Z,63.20
2023-04-22T23:15:13.862Z,63.90
2023-04-22T23:17:42.604Z,64.00
2023-04-22T23:20:12.134Z,64.40
2023-04-22T23:22:41.104Z,65.10
2023-04-22T23:25:10.905Z,67.00
2023-04-22T23:27:39.583Z,66.80
2023-04-22T23:30:10.572Z,67.70
2023-04-22T23:32:41.129Z,68.50
2023-04-22T23:35:11.885Z,69.80
2023-04-22T23:37:45.751Z,71.00
2023-04-22T23:40:14.710Z,71.30
2023-04-22T23:42:42.884Z,73.00
2023-04-22T23:45:13.387Z,73.00
2023-04-22T23:47:42.100Z,73.80
2023-04-22T23:50:11.121Z,74.20
2023-04-22T23:52:41.289Z,74.40
2023-04-22T23:55:11.393Z,74.40
2023-04-22T23:57:40.340Z,74.80
